createdAt,value
2018-01-22T00:02:21.572Z,-82
2018-01-22T00:04:53.327Z,-82
2018-01-22T00:07:20.447Z,-81
2018-01-22T00:09:47.566Z,-82
2018-01-22T00:14:52.765Z,-82
2018-01-22T00:17:20.202Z,-82
2018-01-22T00:19:47.256Z,-82
2018-01-22T00:22:17.365Z,-90
2018-01-22T00:24:47.331Z,-90
2018-01-22T00:27:22.959Z,-90
2018-01-22T00:29:53.474Z,-89
2018-01-22T00:32:20.129Z,-89
2018-01-22T00:34:47.382Z,-90
2018-01-22T00:37:17.304Z,-88
2018-01-22T00:45:04.089Z,-91
2018-01-22T00:47:30.813Z,-91
2018-01-22T00:49:57.893Z,-89
2018-01-22T00:52:25.303Z,-87
2018-01-22T00:54:53.211Z,-84
2018-01-22T00:57:19.886Z,-82
2018-01-22T00:59:46.925Z,-82
2018-01-22T01:02:14.380Z,-84
2018-01-22T01:04:41.800Z,-83
2018-01-22T01:07:09.221Z,-82
2018-01-22T01:09:36.697Z,-82
2018-01-22T01:12:05.423Z,-86
2018-01-22T01:14:35.286Z,-82
2018-01-22T01:17:02.374Z,-85
2018-01-22T01:19:29.021Z,-82
2018-01-22T01:24:34.646Z,-90
2018-01-22T01:29:41.307Z,-89
2018-01-22T01:32:08.447Z,-88
2018-01-22T01:34:36.653Z,-87
2018-01-22T01:37:04.086Z,-83
2018-01-22T01:39:31.585Z,-83
2018-01-22T01:41:58.716Z,-83
2018-01-22T01:44:25.858Z,-82
2018-01-22T01:46:52.900Z,-83
2018-01-22T01:49:19.991Z,-82
2018-01-22T01:51:53.337Z,-87
2018-01-22T01:54:23.468Z,-87
2018-01-22T01:56:51.331Z,-82
2018-01-22T01:59:18.390Z,-82
2018-01-22T02:01:45.420Z,-83
2018-01-22T02:04:12.487Z,-83
2018-01-22T02:06:40.741Z,-82
2018-01-22T02:09:11.510Z,-85
2018-01-22T02:11:38.551Z,-82
2018-01-22T02:14:05.202Z,-83
2018-01-22T02:16:32.245Z,-84
2018-01-22T02:18:59.474Z,-84
2018-01-22T02:21:29.368Z,-82
2018-01-22T02:23:56.404Z,-83
2018-01-22T02:26:23.486Z,-83
2018-01-22T02:28:50.583Z,-83
2018-01-22T02:31:17.380Z,-84
2018-01-22T02:33:44.019Z,-83
2018-01-22T02:36:10.685Z,-82
2018-01-22T02:38:41.363Z,-83
2018-01-22T02:41:08.415Z,-83
2018-01-22T02:43:35.452Z,-83
2018-01-22T02:46:02.115Z,-85
2018-01-22T02:48:29.354Z,-86
2018-01-22T02:50:59.461Z,-85
2018-01-22T02:53:26.150Z,-84
2018-01-22T02:55:59.474Z,-87
2018-01-22T03:01:16.931Z,-86
2018-01-22T03:03:45.246Z,-84
2018-01-22T03:06:12.690Z,-81
2018-01-22T03:08:40.941Z,-82
2018-01-22T03:11:07.605Z,-83
2018-01-22T03:13:34.270Z,-84
2018-01-22T03:16:02.478Z,-88
2018-01-22T03:18:29.150Z,-83
2018-01-22T03:20:57.002Z,-83
2018-01-22T03:31:22.575Z,-90
2018-01-22T03:33:49.321Z,-89
2018-01-22T03:36:15.952Z,-90
2018-01-22T03:38:43.386Z,-83
2018-01-22T03:41:10.505Z,-82
2018-01-22T03:43:37.241Z,-82
2018-01-22T03:46:05.366Z,-85
2018-01-22T03:48:32.021Z,-84
2018-01-22T03:50:58.686Z,-86
2018-01-22T03:53:29.383Z,-90
2018-01-22T04:01:28.981Z,-89
2018-01-22T04:03:55.659Z,-90
2018-01-22T04:06:22.323Z,-90
2018-01-22T04:08:49.149Z,-82
2018-01-22T04:11:23.106Z,-86
2018-01-22T04:13:53.430Z,-88
2018-01-22T04:16:20.117Z,-82
2018-01-22T04:18:47.555Z,-82
2018-01-22T04:21:15.018Z,-82
2018-01-22T04:23:41.674Z,-82
2018-01-22T04:26:08.330Z,-86
2018-01-22T04:28:35.102Z,-83
2018-01-22T04:31:02.177Z,-84
2018-01-22T04:33:29.590Z,-85
2018-01-22T04:35:56.634Z,-87
2018-01-22T04:38:24.126Z,-86
2018-01-22T04:40:51.555Z,-84
2018-01-22T04:43:19.096Z,-82
2018-01-22T04:45:45.842Z,-83
2018-01-22T04:48:13.322Z,-83
2018-01-22T04:50:40.766Z,-85
2018-01-22T04:53:08.928Z,-90
2018-01-22T05:03:33.333Z,-89
2018-01-22T05:06:00.441Z,-90
2018-01-22T05:08:29.418Z,-90
2018-01-22T05:10:56.061Z,-90
2018-01-22T05:13:35.014Z,-89
2018-01-22T05:16:05.505Z,-89
2018-01-22T05:18:32.980Z,-90
2018-01-22T05:21:00.822Z,-90
2018-01-22T05:23:27.927Z,-85
2018-01-22T05:26:05.235Z,-85
2018-01-22T05:28:32.270Z,-82
2018-01-22T05:30:59.062Z,-87
2018-01-22T05:33:26.900Z,-87
2018-01-22T05:35:54.377Z,-84
2018-01-22T05:38:21.406Z,-84
2018-01-22T05:40:48.076Z,-83
2018-01-22T05:43:17.552Z,-84
2018-01-22T05:45:44.215Z,-83
2018-01-22T05:48:10.881Z,-84
2018-01-22T05:50:37.533Z,-86
2018-01-22T05:53:05.782Z,-86
2018-01-22T05:55:32.829Z,-82
2018-01-22T05:57:59.876Z,-82
2018-01-22T06:00:27.313Z,-81
2018-01-22T06:02:54.729Z,-83
2018-01-22T06:05:21.438Z,-83
2018-01-22T06:07:48.099Z,-84
2018-01-22T06:12:54.655Z,-90
2018-01-22T06:15:22.150Z,-90
2018-01-22T06:17:53.432Z,-90
2018-01-22T06:25:47.114Z,-85
2018-01-22T06:28:14.198Z,-83
2018-01-22T06:30:41.275Z,-83
2018-01-22T06:33:08.118Z,-83
2018-01-22T06:35:34.748Z,-84
2018-01-22T06:38:01.584Z,-88
2018-01-22T06:40:41.056Z,-87
2018-01-22T06:43:08.109Z,-82
2018-01-22T06:45:34.772Z,-83
2018-01-22T06:48:01.820Z,-83
2018-01-22T06:50:28.462Z,-88
2018-01-22T06:52:55.551Z,-84
2018-01-22T06:55:23.543Z,-84
2018-01-22T06:57:50.608Z,-85
2018-01-22T07:00:17.689Z,-84
2018-01-22T07:02:53.128Z,-85
2018-01-22T07:05:23.601Z,-85
2018-01-22T07:07:53.538Z,-82
2018-01-22T07:10:23.473Z,-89
2018-01-22T07:12:59.078Z,-83
2018-01-22T07:15:27.018Z,-86
2018-01-22T07:17:54.132Z,-85
2018-01-22T07:20:20.843Z,-89
2018-01-22T07:22:47.556Z,-89
2018-01-22T07:25:14.354Z,-88
2018-01-22T07:27:53.032Z,-90
2018-01-22T07:32:58.624Z,-84
2018-01-22T07:35:29.558Z,-88
2018-01-22T07:37:56.229Z,-86
2018-01-22T07:40:35.089Z,-83
2018-01-22T07:43:01.763Z,-85
2018-01-22T07:45:28.807Z,-83
2018-01-22T07:47:59.501Z,-82
2018-01-22T07:50:26.190Z,-87
2018-01-22T07:52:52.848Z,-87
2018-01-22T07:55:20.285Z,-82
2018-01-22T07:57:47.358Z,-81
2018-01-22T08:00:14.821Z,-83
2018-01-22T08:02:41.578Z,-82
2018-01-22T08:05:09.063Z,-81
2018-01-22T08:07:35.720Z,-81
2018-01-22T08:20:36.828Z,-90
2018-01-22T08:23:03.470Z,-90
2018-01-22T08:33:29.554Z,-88
2018-01-22T08:35:56.301Z,-89
2018-01-22T08:38:23.797Z,-90
2018-01-22T08:40:53.559Z,-89
2018-01-22T08:43:20.613Z,-86
2018-01-22T08:45:47.272Z,-89
2018-01-22T08:48:15.332Z,-88
2018-01-22T08:53:20.465Z,-89
2018-01-22T08:58:35.200Z,-91
2018-01-22T09:03:53.230Z,-89
2018-01-22T09:06:20.301Z,-90
2018-01-22T09:08:53.674Z,-90
2018-01-22T09:11:23.658Z,-90
2018-01-22T09:13:50.310Z,-90
2018-01-22T09:16:17.358Z,-89
2018-01-22T09:18:45.597Z,-88
2018-01-22T09:21:13.056Z,-89
2018-01-22T09:23:47.245Z,-89
2018-01-22T09:26:17.554Z,-90
2018-01-22T09:34:02.870Z,-89
2018-01-22T09:36:29.567Z,-90
2018-01-22T09:39:05.161Z,-90
2018-01-22T09:52:08.570Z,-90
2018-01-22T09:54:35.396Z,-90
2018-01-22T09:57:02.076Z,-88
2018-01-22T09:59:30.523Z,-85
2018-01-22T10:02:05.345Z,-84
2018-01-22T10:04:32.814Z,-85
2018-01-22T10:07:00.611Z,-87
2018-01-22T10:09:29.740Z,-87
2018-01-22T10:11:57.572Z,-88
2018-01-22T10:14:25.469Z,-83
2018-01-22T10:16:52.521Z,-86
2018-01-22T10:19:19.988Z,-84
2018-01-22T10:21:47.607Z,-85
2018-01-22T10:24:17.758Z,-87
2018-01-22T10:26:46.075Z,-86
2018-01-22T10:29:13.192Z,-85
2018-01-22T10:31:40.282Z,-82
2018-01-22T10:34:07.330Z,-84
2018-01-22T10:36:35.682Z,-86
2018-01-22T10:39:02.459Z,-87
2018-01-22T10:46:46.370Z,-88
2018-01-22T10:52:05.237Z,-90
2018-01-22T10:57:12.216Z,-89
2018-01-22T10:59:40.050Z,-88
2018-01-22T11:02:07.513Z,-88
2018-01-22T11:15:10.910Z,-89
2018-01-22T11:17:47.182Z,-91
2018-01-22T11:20:13.817Z,-89
2018-01-22T11:22:47.219Z,-90
2018-01-22T11:25:13.862Z,-90
2018-01-22T11:30:23.667Z,-89
2018-01-22T11:32:59.266Z,-88
2018-01-22T11:38:05.160Z,-90
2018-01-22T11:40:31.941Z,-89
2018-01-22T11:43:11.268Z,-89
2018-01-22T11:48:23.637Z,-90
2018-01-22T11:50:50.401Z,-89
2018-01-22T11:53:17.099Z,-90
2018-01-22T11:55:43.754Z,-89
2018-01-22T12:00:52.787Z,-89
2018-01-22T12:03:29.197Z,-90
2018-01-22T12:05:56.672Z,-88
2018-01-22T12:08:23.735Z,-88
2018-01-22T12:10:50.413Z,-90
2018-01-22T12:13:17.195Z,-84
2018-01-22T12:15:53.266Z,-82
2018-01-22T12:18:19.917Z,-82
2018-01-22T12:20:46.968Z,-83
2018-01-22T12:23:14.029Z,-82
2018-01-22T12:25:41.713Z,-81
2018-01-22T12:28:09.140Z,-90
2018-01-22T12:36:05.246Z,-90
2018-01-22T12:38:33.583Z,-90
2018-01-22T12:41:05.710Z,-89
2018-01-22T12:46:12.893Z,-89
2018-01-22T12:51:19.599Z,-89
2018-01-22T12:53:47.395Z,-88
2018-01-22T12:56:14.447Z,-89
2018-01-22T12:58:41.638Z,-81
2018-01-22T13:01:09.093Z,-85
2018-01-22T13:03:36.609Z,-83
2018-01-22T13:06:03.290Z,-84
2018-01-22T13:08:30.881Z,-82
2018-01-22T13:10:57.952Z,-84
2018-01-22T13:16:17.401Z,-90
2018-01-22T13:18:47.757Z,-89
2018-01-22T13:21:17.637Z,-89
2018-01-22T13:23:44.308Z,-88
2018-01-22T13:26:11.360Z,-89
2018-01-22T13:36:36.397Z,-90
2018-01-22T13:39:03.842Z,-90
2018-01-22T13:41:30.885Z,-90
2018-01-22T13:44:05.258Z,-91
2018-01-22T13:49:12.676Z,-89
2018-01-22T13:51:41.768Z,-89
2018-01-22T13:54:08.817Z,-87
2018-01-22T13:56:35.855Z,-90
2018-01-22T13:59:11.510Z,-89
2018-01-22T14:01:41.636Z,-89
2018-01-22T14:04:17.305Z,-89
2018-01-22T14:06:43.955Z,-86
2018-01-22T14:09:10.597Z,-85
2018-01-22T14:11:37.256Z,-87
2018-01-22T14:16:42.783Z,-85
2018-01-22T14:19:11.642Z,-88
2018-01-22T14:21:47.282Z,-87
2018-01-22T14:24:13.959Z,-86
2018-01-22T14:29:19.361Z,-82
2018-01-22T14:31:47.154Z,-87
2018-01-22T14:36:53.771Z,-84
2018-01-22T14:39:20.423Z,-87
2018-01-22T14:41:47.869Z,-85
2018-01-22T14:44:17.738Z,-83
2018-01-22T14:46:44.774Z,-83
2018-01-22T14:49:12.298Z,-85
2018-01-22T14:51:39.701Z,-84
2018-01-22T14:56:45.665Z,-86
2018-01-22T14:59:13.136Z,-82
2018-01-22T15:01:40.586Z,-87
2018-01-22T15:04:07.265Z,-83
2018-01-22T15:06:41.454Z,-83
2018-01-22T15:09:08.524Z,-82
2018-01-22T15:11:35.722Z,-85
2018-01-22T15:14:11.392Z,-85
2018-01-22T15:16:47.427Z,-84
2018-01-22T15:19:14.886Z,-84
2018-01-22T15:21:42.382Z,-83
2018-01-22T15:24:09.077Z,-82
2018-01-22T15:26:36.259Z,-84
2018-01-22T15:29:05.769Z,-87
2018-01-22T15:31:35.871Z,-82
2018-01-22T15:34:02.919Z,-88
2018-01-22T15:36:29.594Z,-85
2018-01-22T15:38:56.253Z,-85
2018-01-22T15:41:23.841Z,-84
2018-01-22T15:43:53.775Z,-86
2018-01-22T15:46:22.052Z,-87
2018-01-22T15:48:48.772Z,-86
2018-01-22T15:51:15.893Z,-88
2018-01-22T15:53:42.997Z,-84
2018-01-22T15:56:10.871Z,-84
2018-01-22T15:58:37.534Z,-82
2018-01-22T16:01:05.798Z,-83
2018-01-22T16:03:35.932Z,-86
2018-01-22T16:06:02.760Z,-84
2018-01-22T16:08:30.210Z,-85
2018-01-22T16:10:57.301Z,-87
2018-01-22T16:13:24.481Z,-83
2018-01-22T16:18:31.879Z,-89
2018-01-22T16:21:00.229Z,-90
2018-01-22T16:23:26.976Z,-91
2018-01-22T16:25:54.015Z,-90
2018-01-22T16:30:59.666Z,-83
2018-01-22T16:33:26.408Z,-89
2018-01-22T16:35:53.551Z,-86
2018-01-22T16:38:20.339Z,-83
2018-01-22T16:40:47.446Z,-83
2018-01-22T16:45:54.238Z,-86
2018-01-22T16:48:21.054Z,-87
2018-01-22T16:50:47.707Z,-87
2018-01-22T16:53:15.140Z,-86
2018-01-22T16:55:42.372Z,-84
2018-01-22T16:58:09.449Z,-82
2018-01-22T17:00:36.625Z,-89
2018-01-22T17:08:22.574Z,-90
2018-01-22T17:10:49.626Z,-90
2018-01-22T17:15:59.875Z,-89
2018-01-22T17:18:27.358Z,-89
2018-01-22T17:20:54.847Z,-89
2018-01-22T17:23:23.923Z,-89
2018-01-22T17:25:50.587Z,-90
2018-01-22T17:28:17.232Z,-90
2018-01-22T17:30:44.705Z,-83
2018-01-22T17:33:12.883Z,-84
2018-01-22T17:35:39.565Z,-83
2018-01-22T17:38:06.606Z,-83
2018-01-22T17:40:33.679Z,-83
2018-01-22T17:43:00.744Z,-84
2018-01-22T17:45:29.777Z,-84
2018-01-22T17:47:56.825Z,-84
2018-01-22T17:50:23.918Z,-86
2018-01-22T17:52:50.973Z,-87
2018-01-22T17:55:18.788Z,-83
2018-01-22T17:57:45.543Z,-81
2018-01-22T18:00:13.057Z,-83
2018-01-22T18:08:00.714Z,-90
2018-01-22T18:10:27.534Z,-89
2018-01-22T18:12:54.978Z,-88
2018-01-22T18:15:29.438Z,-88
2018-01-22T18:17:59.889Z,-84
2018-01-22T18:20:35.508Z,-87
2018-01-22T18:23:11.416Z,-87
2018-01-22T18:25:38.211Z,-89
2018-01-22T18:30:47.883Z,-85
2018-01-22T18:33:14.986Z,-86
2018-01-22T18:35:42.148Z,-87
2018-01-22T18:38:11.893Z,-86
2018-01-22T18:40:39.032Z,-89
2018-01-22T18:43:06.152Z,-88
2018-01-22T18:45:33.256Z,-84
2018-01-22T18:48:00.286Z,-87
2018-01-22T18:50:26.983Z,-87
2018-01-22T18:52:54.389Z,-85
2018-01-22T18:55:23.888Z,-85
2018-01-22T18:57:50.570Z,-84
2018-01-22T19:00:17.349Z,-84
2018-01-22T19:08:02.716Z,-88
2018-01-22T19:10:29.982Z,-90
2018-01-22T19:15:37.336Z,-89
2018-01-22T19:23:23.909Z,-90
2018-01-22T19:28:40.480Z,-90
2018-01-22T19:31:11.812Z,-90
2018-01-22T19:33:41.932Z,-88
2018-01-22T19:36:10.189Z,-85
2018-01-22T19:38:36.910Z,-85
2018-01-22T19:41:03.704Z,-87
2018-01-22T19:43:35.849Z,-88
2018-01-22T19:46:05.996Z,-85
2018-01-22T19:48:32.666Z,-84
2018-01-22T19:50:59.482Z,-87
2018-01-22T19:53:26.543Z,-88
2018-01-22T19:55:53.237Z,-83
2018-01-22T19:58:20.473Z,-82
2018-01-22T20:00:47.182Z,-83
2018-01-22T20:03:14.786Z,-83
2018-01-22T20:05:42.687Z,-82
2018-01-22T20:08:09.825Z,-85
2018-01-22T20:10:36.536Z,-84
2018-01-22T20:13:03.742Z,-84
2018-01-22T20:15:30.551Z,-83
2018-01-22T20:23:17.360Z,-90
2018-01-22T20:25:44.772Z,-88
2018-01-22T20:33:29.999Z,-84
2018-01-22T20:35:59.999Z,-83
2018-01-22T20:38:27.039Z,-82
2018-01-22T20:40:53.878Z,-82
2018-01-22T20:43:20.919Z,-83
2018-01-22T20:45:48.068Z,-82
2018-01-22T20:48:15.595Z,-81
2018-01-22T20:50:47.802Z,-81
2018-01-22T20:53:14.446Z,-82
2018-01-22T20:55:41.549Z,-83
2018-01-22T20:58:08.297Z,-82
2018-01-22T21:00:35.402Z,-81
2018-01-22T21:05:47.920Z,-89
2018-01-22T21:08:14.736Z,-88
2018-01-22T21:10:41.917Z,-87
2018-01-22T21:13:17.617Z,-90
2018-01-22T21:18:25.393Z,-82
2018-01-22T21:20:52.453Z,-82
2018-01-22T21:23:24.053Z,-83
2018-01-22T21:25:51.148Z,-82
2018-01-22T21:28:17.926Z,-84
2018-01-22T21:30:45.019Z,-83
2018-01-22T21:33:12.238Z,-85
2018-01-22T21:35:39.717Z,-82
2018-01-22T21:38:06.618Z,-82
2018-01-22T21:40:33.797Z,-83
2018-01-22T21:43:05.872Z,-84
2018-01-22T21:45:36.084Z,-82
2018-01-22T21:48:04.445Z,-90
2018-01-22T21:50:31.617Z,-90
2018-01-22T21:52:58.471Z,-88
2018-01-22T21:55:25.287Z,-91
2018-01-22T22:03:23.639Z,-85
2018-01-22T22:05:53.938Z,-88
2018-01-22T22:08:21.026Z,-83
2018-01-22T22:10:47.724Z,-87
2018-01-22T22:13:14.522Z,-85
2018-01-22T22:15:47.457Z,-85
2018-01-22T22:18:14.931Z,-85
2018-01-22T22:23:29.497Z,-90
2018-01-22T22:33:54.993Z,-85
2018-01-22T22:36:29.568Z,-84
2018-01-22T22:38:59.932Z,-87
2018-01-22T22:41:29.907Z,-86
2018-01-22T22:43:57.317Z,-87
2018-01-22T22:46:24.366Z,-87
2018-01-22T22:48:51.001Z,-85
2018-01-22T22:51:23.988Z,-87
2018-01-22T22:53:54.037Z,-86
2018-01-22T22:56:21.144Z,-85
2018-01-22T22:58:48.169Z,-83
2018-01-22T23:01:15.223Z,-84
2018-01-22T23:03:53.482Z,-87
2018-01-22T23:11:42.081Z,-90
2018-01-22T23:19:30.041Z,-90
2018-01-22T23:21:59.962Z,-90
2018-01-22T23:24:35.630Z,-91
2018-01-22T23:27:05.997Z,-90
2018-01-22T23:29:32.826Z,-90
2018-01-22T23:37:20.372Z,-90
2018-01-22T23:39:47.480Z,-90
2018-01-22T23:42:14.197Z,-90
2018-01-22T23:50:00.595Z,-89
2018-01-22T23:52:28.032Z,-87
2018-01-22T23:54:54.694Z,-83
2018-01-22T23:57:21.724Z,-81
2018-01-22T23:59:48.806Z,-83
